createdAt,value
2018-12-09T00:01:27.283Z,96.96
2018-12-09T00:04:34.771Z,96.50
2018-12-09T00:07:43.128Z,96.57
2018-12-09T00:14:07.172Z,95.83
2018-12-09T00:17:24.624Z,95.94
2018-12-09T00:20:42.375Z,96.22
2018-12-09T00:27:06.360Z,96.82
2018-12-09T00:30:14.303Z,97.60
2018-12-09T00:33:21.759Z,97.20
2018-12-09T00:36:29.240Z,97.61
2018-12-09T00:39:37.470Z,97.88
2018-12-09T00:42:45.301Z,97.56
2018-12-09T00:45:52.795Z,97.72
2018-12-09T00:49:10.159Z,97.19
2018-12-09T00:52:27.636Z,97.05
2018-12-09T00:55:35.566Z,96.61
2018-12-09T00:58:43.452Z,96.90
2018-12-09T01:02:05.676Z,96.90
2018-12-09T01:05:13.962Z,97.24
2018-12-09T01:08:22.326Z,96.90
2018-12-09T01:11:29.949Z,97.10
2018-12-09T01:14:37.434Z,96.88
2018-12-09T01:17:45.435Z,97.27
2018-12-09T01:20:53.451Z,96.70
2018-12-09T01:24:00.927Z,95.57
2018-12-09T01:27:09.405Z,96.86
2018-12-09T01:30:17.076Z,96.19
2018-12-09T01:33:35.091Z,96.01
2018-12-09T01:36:52.551Z,95.39
2018-12-09T01:40:11.004Z,95.65
2018-12-09T01:43:18.492Z,95.94
2018-12-09T01:46:25.992Z,95.69
2018-12-09T01:49:44.991Z,96.53
2018-12-09T01:53:19.508Z,96.59
2018-12-09T01:56:26.972Z,96.57
2018-12-09T01:59:34.876Z,96.49
2018-12-09T02:02:43.003Z,96.71
2018-12-09T02:05:50.495Z,96.00
2018-12-09T02:09:09.813Z,96.15
2018-12-09T02:12:17.401Z,96.23
2018-12-09T02:15:25.384Z,95.77
2018-12-09T02:18:43.000Z,95.97
2018-12-09T02:22:00.552Z,96.32
2018-12-09T02:25:08.943Z,96.08
2018-12-09T02:28:16.464Z,95.63
2018-12-09T02:31:34.403Z,95.36
2018-12-09T02:34:52.371Z,94.63
2018-12-09T02:38:09.781Z,96.03
2018-12-09T02:41:27.732Z,96.16
2018-12-09T02:44:35.292Z,95.38
2018-12-09T02:47:42.812Z,95.02
2018-12-09T02:50:50.360Z,95.00
2018-12-09T02:53:58.520Z,94.75
2018-12-09T02:57:06.037Z,93.80
2018-12-09T03:00:24.348Z,94.03
2018-12-09T03:03:32.386Z,94.62
2018-12-09T03:06:39.983Z,94.83
2018-12-09T03:09:47.864Z,95.00
2018-12-09T03:12:55.704Z,94.31
2018-12-09T03:16:03.194Z,94.68
2018-12-09T03:19:11.172Z,94.55
2018-12-09T03:22:18.704Z,93.83
2018-12-09T03:25:26.271Z,94.71
2018-12-09T03:28:43.739Z,94.68
2018-12-09T03:31:52.042Z,94.10
2018-12-09T03:35:00.161Z,94.01
2018-12-09T03:38:07.753Z,94.69
2018-12-09T03:41:15.278Z,94.40
2018-12-09T03:44:22.727Z,93.44
2018-12-09T03:47:30.778Z,93.88
2018-12-09T03:50:38.332Z,93.75
2018-12-09T03:53:45.850Z,94.59
2018-12-09T03:56:53.339Z,94.86
2018-12-09T04:00:10.897Z,93.83
2018-12-09T04:03:28.254Z,94.48
2018-12-09T04:06:45.737Z,94.28
2018-12-09T04:09:53.923Z,94.72
2018-12-09T04:13:01.444Z,94.82
2018-12-09T04:16:08.919Z,94.57
2018-12-09T04:19:26.585Z,94.83
2018-12-09T04:22:34.440Z,95.11
2018-12-09T04:25:42.067Z,95.29
2018-12-09T04:28:49.582Z,94.44
2018-12-09T04:32:07.632Z,94.76
2018-12-09T04:35:15.543Z,94.62
2018-12-09T04:38:23.128Z,94.26
2018-12-09T04:41:40.663Z,93.42
2018-12-09T04:44:48.150Z,93.65
2018-12-09T04:47:55.755Z,94.52
2018-12-09T04:51:03.332Z,93.63
2018-12-09T04:54:10.847Z,93.06
2018-12-09T04:57:28.385Z,93.39
2018-12-09T05:00:55.898Z,93.31
2018-12-09T05:04:03.451Z,93.03
2018-12-09T05:07:10.903Z,93.01
2018-12-09T05:10:18.526Z,92.47
2018-12-09T05:13:36.076Z,93.22
2018-12-09T05:16:53.608Z,93.35
2018-12-09T05:20:11.581Z,93.39
2018-12-09T05:23:19.055Z,93.10
2018-12-09T05:26:26.643Z,93.23
2018-12-09T05:29:34.244Z,93.03
2018-12-09T05:32:51.775Z,92.74
2018-12-09T05:36:00.230Z,93.27
2018-12-09T05:39:08.143Z,92.97
2018-12-09T05:42:16.087Z,93.63
2018-12-09T05:45:23.615Z,93.88
2018-12-09T05:48:41.188Z,93.70
2018-12-09T05:51:58.747Z,93.81
2018-12-09T05:55:16.216Z,94.14
2018-12-09T05:58:30.408Z,94.08
2018-12-09T06:01:37.976Z,93.55
2018-12-09T06:04:45.560Z,93.55
2018-12-09T06:07:53.064Z,93.59
2018-12-09T06:11:10.457Z,94.57
2018-12-09T06:14:28.428Z,94.48
2018-12-09T06:17:45.832Z,94.24
2018-12-09T06:21:03.384Z,94.51
2018-12-09T06:24:11.495Z,94.77
2018-12-09T06:27:18.977Z,94.81
2018-12-09T06:30:26.588Z,94.26
2018-12-09T06:33:44.021Z,93.89
2018-12-09T06:37:01.433Z,94.70
2018-12-09T06:40:09.876Z,93.87
2018-12-09T06:43:17.340Z,93.34
2018-12-09T06:46:34.899Z,93.86
2018-12-09T06:49:52.427Z,93.91
2018-12-09T06:53:09.848Z,93.58
2018-12-09T06:56:27.290Z,92.85
2018-12-09T06:59:45.227Z,92.54
2018-12-09T07:02:52.723Z,93.18
2018-12-09T07:06:00.219Z,93.14
2018-12-09T07:09:18.368Z,93.42
2018-12-09T07:12:25.845Z,93.06
2018-12-09T07:15:33.364Z,93.05
2018-12-09T07:18:40.857Z,92.88
2018-12-09T07:21:48.390Z,92.80
2018-12-09T07:24:55.964Z,92.46
2018-12-09T07:28:03.436Z,92.49
2018-12-09T07:31:11.066Z,92.25
2018-12-09T07:34:18.967Z,92.88
2018-12-09T07:37:36.475Z,92.49
2018-12-09T07:40:54.262Z,92.54
2018-12-09T07:44:02.140Z,92.15
2018-12-09T07:47:09.719Z,92.71
2018-12-09T07:50:17.331Z,92.67
2018-12-09T07:53:25.460Z,92.33
2018-12-09T07:56:33.040Z,92.91
2018-12-09T07:59:50.679Z,92.53
2018-12-09T08:03:08.192Z,92.25
2018-12-09T08:06:27.612Z,92.27
2018-12-09T08:09:45.219Z,91.80
2018-12-09T08:12:52.696Z,92.02
2018-12-09T08:16:00.218Z,91.87
2018-12-09T08:19:07.695Z,91.27
2018-12-09T08:22:15.724Z,91.16
2018-12-09T08:25:23.216Z,91.90
2018-12-09T08:28:30.691Z,92.20
2018-12-09T08:31:38.316Z,91.13
2018-12-09T08:34:45.842Z,91.26
2018-12-09T08:38:03.315Z,91.12
2018-12-09T08:41:20.975Z,91.04
2018-12-09T08:44:28.452Z,91.11
2018-12-09T08:47:36.067Z,90.57
2018-12-09T08:50:43.591Z,90.87
2018-12-09T08:53:51.076Z,89.65
2018-12-09T08:57:09.127Z,89.70
2018-12-09T09:00:16.712Z,89.27
2018-12-09T09:03:24.153Z,89.63
2018-12-09T09:06:31.703Z,90.01
2018-12-09T09:09:39.275Z,89.74
2018-12-09T09:12:46.840Z,90.34
2018-12-09T09:15:54.288Z,89.61
2018-12-09T09:19:01.727Z,89.96
2018-12-09T09:22:09.732Z,87.99
2018-12-09T09:25:17.280Z,89.39
2018-12-09T09:28:24.751Z,89.51
2018-12-09T09:31:32.404Z,89.98
2018-12-09T09:34:39.912Z,90.13
2018-12-09T09:37:57.395Z,91.85
2018-12-09T09:41:14.961Z,91.35
2018-12-09T09:44:32.376Z,92.07
2018-12-09T09:47:50.232Z,92.28
2018-12-09T09:50:57.744Z,90.90
2018-12-09T09:54:06.480Z,90.23
2018-12-09T10:00:30.072Z,89.21
2018-12-09T10:03:38.056Z,88.39
2018-12-09T10:06:45.583Z,87.84
2018-12-09T10:09:54.153Z,86.75
2018-12-09T10:13:01.700Z,87.10
2018-12-09T10:16:19.215Z,86.67
2018-12-09T10:19:36.836Z,86.55
2018-12-09T10:22:53.892Z,87.26
2018-12-09T10:26:11.356Z,87.43
2018-12-09T10:29:28.849Z,87.64
2018-12-09T10:32:46.297Z,87.17
2018-12-09T10:36:03.735Z,87.92
2018-12-09T10:39:21.728Z,87.87
2018-12-09T10:42:29.207Z,88.85
2018-12-09T10:45:36.662Z,90.00
2018-12-09T10:48:44.207Z,90.83
2018-12-09T10:51:51.840Z,90.89
2018-12-09T10:55:09.843Z,89.31
2018-12-09T10:58:17.396Z,89.43
2018-12-09T11:04:55.786Z,89.63
2018-12-09T11:08:13.261Z,90.21
2018-12-09T11:11:30.797Z,88.89
2018-12-09T11:14:48.196Z,87.69
2018-12-09T11:18:06.243Z,87.90
2018-12-09T11:21:13.757Z,88.54
2018-12-09T11:24:21.748Z,88.06
2018-12-09T11:27:39.108Z,86.79
2018-12-09T11:30:56.709Z,87.91
2018-12-09T11:34:14.371Z,88.75
2018-12-09T11:37:31.844Z,88.49
2018-12-09T11:40:51.361Z,87.47
2018-12-09T11:44:08.748Z,88.19
2018-12-09T11:47:26.819Z,87.94
2018-12-09T11:50:34.356Z,86.32
2018-12-09T11:53:41.912Z,85.14
2018-12-09T11:56:49.392Z,84.97
2018-12-09T12:00:13.068Z,84.35
2018-12-09T12:03:20.532Z,85.80
2018-12-09T12:06:38.043Z,84.05
2018-12-09T12:09:55.544Z,85.50
2018-12-09T12:13:12.832Z,84.58
2018-12-09T12:16:30.511Z,84.02
2018-12-09T12:19:38.217Z,84.79
2018-12-09T12:22:45.804Z,84.90
2018-12-09T12:25:54.346Z,84.74
2018-12-09T12:29:01.832Z,85.62
2018-12-09T12:32:09.416Z,86.88
2018-12-09T12:35:30.021Z,86.30
2018-12-09T12:38:47.439Z,86.82
2018-12-09T12:42:05.004Z,86.51
2018-12-09T12:45:12.787Z,85.52
2018-12-09T12:48:20.265Z,87.45
2018-12-09T12:51:28.200Z,88.67
2018-12-09T12:54:46.009Z,88.65
2018-12-09T12:57:53.527Z,89.89
2018-12-09T13:01:01.235Z,89.72
2018-12-09T13:04:08.808Z,88.51
2018-12-09T13:07:26.355Z,85.23
2018-12-09T13:10:45.831Z,84.56
2018-12-09T13:14:03.667Z,83.82
2018-12-09T13:17:11.280Z,84.46
2018-12-09T13:20:18.900Z,83.84
2018-12-09T13:23:26.856Z,84.38
2018-12-09T13:26:34.484Z,84.17
2018-12-09T13:29:42.468Z,84.30
2018-12-09T13:32:59.948Z,83.58
2018-12-09T13:36:17.636Z,84.71
2018-12-09T13:39:25.157Z,84.80
2018-12-09T13:42:32.656Z,84.61
2018-12-09T13:45:40.652Z,84.51
2018-12-09T13:48:58.122Z,84.46
2018-12-09T13:52:06.104Z,85.03
2018-12-09T13:55:13.778Z,84.91
2018-12-09T13:58:21.299Z,86.34
2018-12-09T14:01:38.724Z,85.85
2018-12-09T14:04:56.272Z,85.47
2018-12-09T14:08:14.523Z,85.60
2018-12-09T14:11:22.556Z,85.65
2018-12-09T14:14:39.946Z,85.53
2018-12-09T14:17:47.748Z,85.53
2018-12-09T14:20:55.557Z,85.27
2018-12-09T14:24:13.396Z,84.00
2018-12-09T14:27:30.923Z,83.02
2018-12-09T14:30:48.285Z,83.68
2018-12-09T14:34:05.818Z,82.62
2018-12-09T14:40:56.389Z,82.34
2018-12-09T14:44:13.843Z,82.62
2018-12-09T14:47:21.644Z,82.93
2018-12-09T14:50:29.122Z,82.58
2018-12-09T14:53:36.635Z,83.05
2018-12-09T14:56:54.564Z,83.08
2018-12-09T15:00:12.731Z,83.75
2018-12-09T15:03:18.084Z,83.92
2018-12-09T15:06:25.726Z,85.03
2018-12-09T15:09:34.593Z,85.49
2018-12-09T15:12:42.456Z,86.35
2018-12-09T15:15:59.816Z,85.96
2018-12-09T15:19:17.409Z,85.62
2018-12-09T15:22:24.976Z,85.00
2018-12-09T15:25:33.801Z,84.58
2018-12-09T15:28:41.297Z,84.45
2018-12-09T15:31:48.756Z,83.49
2018-12-09T15:34:56.559Z,83.19
2018-12-09T15:38:13.952Z,83.21
2018-12-09T15:41:31.512Z,82.87
2018-12-09T15:44:49.009Z,82.60
2018-12-09T15:48:06.495Z,82.76
2018-12-09T15:51:24.567Z,82.49
2018-12-09T15:54:32.712Z,81.90
2018-12-09T15:57:50.203Z,82.07
2018-12-09T16:01:07.711Z,80.84
2018-12-09T16:04:25.188Z,80.32
2018-12-09T16:07:42.604Z,80.07
2018-12-09T16:11:00.140Z,79.85
2018-12-09T16:14:18.317Z,78.94
2018-12-09T16:17:26.467Z,79.91
2018-12-09T16:20:33.983Z,79.44
2018-12-09T16:23:41.489Z,80.03
2018-12-09T16:26:48.954Z,80.51
2018-12-09T16:29:56.430Z,80.94
2018-12-09T16:33:04.285Z,79.77
2018-12-09T16:36:12.171Z,79.04
2018-12-09T16:39:19.693Z,79.11
2018-12-09T16:42:37.395Z,79.62
2018-12-09T16:45:55.504Z,79.24
2018-12-09T16:49:03.063Z,79.73
2018-12-09T16:52:10.548Z,79.88
2018-12-09T16:55:18.055Z,79.37
2018-12-09T16:58:35.704Z,78.89
2018-12-09T17:01:53.259Z,78.43
2018-12-09T17:05:10.752Z,78.46
2018-12-09T17:08:18.461Z,78.83
2018-12-09T17:11:26.056Z,78.21
2018-12-09T17:14:33.550Z,78.15
2018-12-09T17:17:41.024Z,78.43
2018-12-09T17:20:58.616Z,79.74
2018-12-09T17:24:16.047Z,82.73
2018-12-09T17:27:34.138Z,84.42
2018-12-09T17:30:42.267Z,85.64
2018-12-09T17:33:59.836Z,85.44
2018-12-09T17:37:07.377Z,85.33
2018-12-09T17:40:15.019Z,84.69
2018-12-09T17:43:22.492Z,84.44
2018-12-09T17:46:42.009Z,83.48
2018-12-09T17:49:59.417Z,82.63
2018-12-09T17:53:16.866Z,82.92
2018-12-09T17:56:34.449Z,82.18
2018-12-09T17:59:51.897Z,81.84
2018-12-09T18:03:09.809Z,81.07
2018-12-09T18:06:27.377Z,81.10
2018-12-09T18:09:44.816Z,80.50
2018-12-09T18:13:02.368Z,79.73
2018-12-09T18:16:09.927Z,79.26
2018-12-09T18:19:17.430Z,79.20
2018-12-09T18:22:24.961Z,78.79
2018-12-09T18:25:32.488Z,78.69
2018-12-09T18:28:50.094Z,76.76
2018-12-09T18:32:09.136Z,76.01
2018-12-09T18:35:26.756Z,75.83
2018-12-09T18:38:44.605Z,75.61
2018-12-09T18:41:52.296Z,75.84
2018-12-09T18:44:59.773Z,75.25
2018-12-09T18:48:07.300Z,76.15
2018-12-09T18:51:24.819Z,75.36
2018-12-09T18:54:42.223Z,75.95
2018-12-09T18:57:59.721Z,76.48
2018-12-09T19:01:17.644Z,75.63
2018-12-09T19:04:26.228Z,76.31
2018-12-09T19:07:34.256Z,76.53
2018-12-09T19:10:42.185Z,75.84
2018-12-09T19:13:49.800Z,75.78
2018-12-09T19:16:57.472Z,75.77
2018-12-09T19:20:06.221Z,76.22
2018-12-09T19:23:14.234Z,76.17
2018-12-09T19:26:21.775Z,76.69
2018-12-09T19:29:29.409Z,76.58
2018-12-09T19:32:36.987Z,76.98
2018-12-09T19:35:54.565Z,76.84
2018-12-09T19:39:12.086Z,77.52
2018-12-09T19:42:19.968Z,77.25
2018-12-09T19:45:27.544Z,77.49
2018-12-09T19:48:35.169Z,78.08
2018-12-09T19:51:52.667Z,78.20
2018-12-09T19:55:10.118Z,77.54
2018-12-09T19:58:27.540Z,77.49
2018-12-09T20:01:35.545Z,77.81
2018-12-09T20:04:43.064Z,77.37
2018-12-09T20:07:50.679Z,77.18
2018-12-09T20:11:08.280Z,76.57
2018-12-09T20:14:25.720Z,76.35
2018-12-09T20:17:43.192Z,76.20
2018-12-09T20:21:00.584Z,76.22
2018-12-09T20:24:18.016Z,74.90
2018-12-09T20:27:35.932Z,75.11
2018-12-09T20:30:43.443Z,74.99
2018-12-09T20:33:51.664Z,75.64
2018-12-09T20:36:59.128Z,75.82
2018-12-09T20:40:06.562Z,76.36
2018-12-09T20:43:14.240Z,76.70
2018-12-09T20:46:21.764Z,76.79
2018-12-09T20:49:39.284Z,77.55
2018-12-09T20:52:56.695Z,77.83
2018-12-09T20:56:14.147Z,77.58
2018-12-09T20:59:31.671Z,77.48
2018-12-09T21:02:49.083Z,77.31
2018-12-09T21:06:06.489Z,76.33
2018-12-09T21:09:24.004Z,75.96
2018-12-09T21:12:41.361Z,75.77
2018-12-09T21:15:58.967Z,75.72
2018-12-09T21:19:06.981Z,74.39
2018-12-09T21:22:14.555Z,74.23
2018-12-09T21:25:22.023Z,73.58
2018-12-09T21:28:39.948Z,73.14
2018-12-09T21:31:47.478Z,73.84
2018-12-09T21:34:55.513Z,73.38
2018-12-09T21:38:13.021Z,74.74
2018-12-09T21:41:30.648Z,75.32
2018-12-09T21:44:48.059Z,75.55
2018-12-09T21:48:05.538Z,75.50
2018-12-09T21:51:23.074Z,75.70
2018-12-09T21:54:40.449Z,75.69
2018-12-09T21:57:58.366Z,75.81
2018-12-09T22:01:15.880Z,76.30
2018-12-09T22:04:33.284Z,76.45
2018-12-09T22:07:41.217Z,76.90
2018-12-09T22:10:48.713Z,77.49
2018-12-09T22:13:56.668Z,77.39
2018-12-09T22:17:04.186Z,77.17
2018-12-09T22:20:11.623Z,78.12
2018-12-09T22:23:19.180Z,78.39
2018-12-09T22:26:26.675Z,77.98
2018-12-09T22:29:34.137Z,78.15
2018-12-09T22:32:51.547Z,78.18
2018-12-09T22:36:11.061Z,77.45
2018-12-09T22:39:28.505Z,77.56
2018-12-09T22:42:45.933Z,77.58
2018-12-09T22:46:03.376Z,77.26
2018-12-09T22:49:20.891Z,76.89
2018-12-09T22:52:38.319Z,76.83
2018-12-09T22:55:55.756Z,76.89
2018-12-09T22:59:13.699Z,76.73
2018-12-09T23:02:26.400Z,76.30
2018-12-09T23:05:34.315Z,76.17
2018-12-09T23:08:41.791Z,75.71
2018-12-09T23:11:49.256Z,74.58
2018-12-09T23:14:57.013Z,74.63
2018-12-09T23:18:04.491Z,74.81
2018-12-09T23:21:21.879Z,74.79
2018-12-09T23:24:39.771Z,74.88
2018-12-09T23:27:47.263Z,75.03
2018-12-09T23:34:10.672Z,75.63
2018-12-09T23:37:28.044Z,76.24
2018-12-09T23:40:45.496Z,76.35
2018-12-09T23:44:03.236Z,78.70
2018-12-09T23:47:10.706Z,79.49
2018-12-09T23:50:18.257Z,78.95
2018-12-09T23:53:25.856Z,80.24
2018-12-09T23:56:33.324Z,80.12
2018-12-09T23:59:50.813Z,80.04
